sensor_id;sensor_type;location;lat;lon;timestamp;temperature;humidity
2447;DHT22;26430;48.818;9.244;2023-01-26T00:00:46;2.40;99.90
2447;DHT22;26430;48.818;9.244;2023-01-26T00:03:12;2.40;99.90
2447;DHT22;26430;48.818;9.244;2023-01-26T00:05:39;2.40;99.90
2447;DHT22;26430;48.818;9.244;2023-01-26T00:08:05;2.30;99.90
2447;DHT22;26430;48.818;9.244;2023-01-26T00:10:31;2.30;99.90
2447;DHT22;26430;48.818;9.244;2023-01-26T00:12:56;2.40;99.90
2447;DHT22;26430;48.818;9.244;2023-01-26T00:15:22;2.40;99.90
2447;DHT22;26430;48.818;9.244;2023-01-26T00:17:48;2.50;99.90
2447;DHT22;26430;48.818;9.244;2023-01-26T00:20:16;2.50;99.90
2447;DHT22;26430;48.818;9.244;2023-01-26T00:22:42;2.70;99.90
2447;DHT22;26430;48.818;9.244;2023-01-26T00:25:08;2.70;99.90
2447;DHT22;26430;48.818;9.244;2023-01-26T00:27:34;2.60;99.90
2447;DHT22;26430;48.818;9.244;2023-01-26T00:29:59;2.60;99.90
2447;DHT22;26430;48.818;9.244;2023-01-26T00:32:25;2.60;99.90
2447;DHT22;26430;48.818;9.244;2023-01-26T00:34:51;2.60;99.90
2447;DHT22;26430;48.818;9.244;2023-01-26T00:37:16;2.60;99.90
2447;DHT22;26430;48.818;9.244;2023-01-26T00:39:42;2.60;99.90
2447;DHT22;26430;48.818;9.244;2023-01-26T00:42:08;2.50;99.90
2447;DHT22;26430;48.818;9.244;2023-01-26T00:44:39;2.30;99.90
2447;DHT22;26430;48.818;9.244;2023-01-26T00:47:07;2.30;99.90
2447;DHT22;26430;48.818;9.244;2023-01-26T00:49:33;2.30;99.90
2447;DHT22;26430;48.818;9.244;2023-01-26T00:52:00;2.30;99.90
2447;DHT22;26430;48.818;9.244;2023-01-26T00:54:26;2.20;99.90
2447;DHT22;26430;48.818;9.244;2023-01-26T00:56:52;2.30;99.90
2447;DHT22;26430;48.818;9.244;2023-01-26T00:59:18;2.30;99.90
2447;DHT22;26430;48.818;9.244;2023-01-26T01:01:44;2.20;99.90
2447;DHT22;26430;48.818;9.244;2023-01-26T01:04:10;2.20;99.90
2447;DHT22;26430;48.818;9.244;2023-01-26T01:06:35;2.20;99.90
2447;DHT22;26430;48.818;9.244;2023-01-26T01:09:01;2.20;99.90
2447;DHT22;26430;48.818;9.244;2023-01-26T01:11:27;2.30;99.90
2447;DHT22;26430;48.818;9.244;2023-01-26T01:13:52;2.30;99.90
2447;DHT22;26430;48.818;9.244;2023-01-26T01:16:18;2.40;99.90
2447;DHT22;26430;48.818;9.244;2023-01-26T01:18:44;2.30;99.90
2447;DHT22;26430;48.818;9.244;2023-01-26T01:21:12;2.40;99.90
2447;DHT22;26430;48.818;9.244;2023-01-26T01:23:39;2.50;99.90
2447;DHT22;26430;48.818;9.244;2023-01-26T01:26:05;2.40;99.90
2447;DHT22;26430;48.818;9.244;2023-01-26T01:28:32;2.20;99.90
2447;DHT22;26430;48.818;9.244;2023-01-26T01:30:58;2.10;99.90
2447;DHT22;26430;48.818;9.244;2023-01-26T01:33:24;2.20;99.90
2447;DHT22;26430;48.818;9.244;2023-01-26T01:35:57;2.20;99.90
2447;DHT22;26430;48.818;9.244;2023-01-26T01:38:23;2.40;99.90
2447;DHT22;26430;48.818;9.244;2023-01-26T01:40:48;2.50;99.90
2447;DHT22;26430;48.818;9.244;2023-01-26T01:43:14;2.40;99.90
2447;DHT22;26430;48.818;9.244;2023-01-26T01:45:46;2.20;99.90
2447;DHT22;26430;48.818;9.244;2023-01-26T01:48:33;2.10;99.90
2447;DHT22;26430;48.818;9.244;2023-01-26T01:51:05;2.20;99.90
2447;DHT22;26430;48.818;9.244;2023-01-26T01:53:36;2.50;99.90
2447;DHT22;26430;48.818;9.244;2023-01-26T01:56:18;2.60;99.90
2447;DHT22;26430;48.818;9.244;2023-01-26T01:58:47;2.70;99.90
2447;DHT22;26430;48.818;9.244;2023-01-26T02:01:14;2.70;99.90
2447;DHT22;26430;48.818;9.244;2023-01-26T02:03:40;2.80;99.90
2447;DHT22;26430;48.818;9.244;2023-01-26T02:06:18;2.50;99.90
2447;DHT22;26430;48.818;9.244;2023-01-26T02:08:46;2.30;99.90
2447;DHT22;26430;48.818;9.244;2023-01-26T02:11:26;2.30;99.90
2447;DHT22;26430;48.818;9.244;2023-01-26T02:13:53;2.30;99.90
2447;DHT22;26430;48.818;9.244;2023-01-26T02:16:19;2.20;99.90
2447;DHT22;26430;48.818;9.244;2023-01-26T02:18:45;2.10;99.90
2447;DHT22;26430;48.818;9.244;2023-01-26T02:21:16;2.20;99.90
2447;DHT22;26430;48.818;9.244;2023-01-26T02:23:57;2.20;99.90
2447;DHT22;26430;48.818;9.244;2023-01-26T02:26:28;2.50;99.90
2447;DHT22;26430;48.818;9.244;2023-01-26T02:28:54;2.50;99.90
2447;DHT22;26430;48.818;9.244;2023-01-26T02:31:22;2.70;99.90
2447;DHT22;26430;48.818;9.244;2023-01-26T02:33:47;2.80;99.90
2447;DHT22;26430;48.818;9.244;2023-01-26T02:41:21;3.00;99.90
2447;DHT22;26430;48.818;9.244;2023-01-26T02:44:08;2.90;99.90
2447;DHT22;26430;48.818;9.244;2023-01-26T02:46:34;3.00;99.90
2447;DHT22;26430;48.818;9.244;2023-01-26T02:49:00;2.90;99.90
2447;DHT22;26430;48.818;9.244;2023-01-26T02:51:44;3.00;99.90
2447;DHT22;26430;48.818;9.244;2023-01-26T02:54:09;3.00;99.90
2447;DHT22;26430;48.818;9.244;2023-01-26T02:56:55;3.00;99.90
2447;DHT22;26430;48.818;9.244;2023-01-26T02:59:20;2.70;99.90
2447;DHT22;26430;48.818;9.244;2023-01-26T03:01:49;2.50;99.90
2447;DHT22;26430;48.818;9.244;2023-01-26T03:04:14;2.60;99.90
2447;DHT22;26430;48.818;9.244;2023-01-26T03:06:40;2.30;99.90
2447;DHT22;26430;48.818;9.244;2023-01-26T03:09:06;2.30;99.90
2447;DHT22;26430;48.818;9.244;2023-01-26T03:11:31;2.30;99.90
2447;DHT22;26430;48.818;9.244;2023-01-26T03:14:10;2.30;99.90
2447;DHT22;26430;48.818;9.244;2023-01-26T03:16:36;2.20;99.90
2447;DHT22;26430;48.818;9.244;2023-01-26T03:19:03;2.00;99.90
2447;DHT22;26430;48.818;9.244;2023-01-26T03:21:28;1.90;99.90
2447;DHT22;26430;48.818;9.244;2023-01-26T03:24:14;1.80;99.90
2447;DHT22;26430;48.818;9.244;2023-01-26T03:26:59;1.80;99.90
2447;DHT22;26430;48.818;9.244;2023-01-26T03:29:44;2.00;99.90
2447;DHT22;26430;48.818;9.244;2023-01-26T03:32:10;2.10;99.90
2447;DHT22;26430;48.818;9.244;2023-01-26T03:34:36;2.30;99.90
2447;DHT22;26430;48.818;9.244;2023-01-26T03:37:02;2.20;99.90
2447;DHT22;26430;48.818;9.244;2023-01-26T03:39:27;2.00;99.90
2447;DHT22;26430;48.818;9.244;2023-01-26T03:42:12;2.00;99.90
2447;DHT22;26430;48.818;9.244;2023-01-26T03:44:56;1.90;99.90
2447;DHT22;26430;48.818;9.244;2023-01-26T03:47:40;1.90;99.90
2447;DHT22;26430;48.818;9.244;2023-01-26T03:50:24;2.00;99.90
2447;DHT22;26430;48.818;9.244;2023-01-26T03:53:16;2.00;99.90
2447;DHT22;26430;48.818;9.244;2023-01-26T03:56:01;1.90;99.90
2447;DHT22;26430;48.818;9.244;2023-01-26T03:58:46;2.10;99.90
2447;DHT22;26430;48.818;9.244;2023-01-26T04:01:13;2.20;99.90
2447;DHT22;26430;48.818;9.244;2023-01-26T04:03:48;2.20;99.90
2447;DHT22;26430;48.818;9.244;2023-01-26T04:06:34;2.10;99.90
2447;DHT22;26430;48.818;9.244;2023-01-26T04:09:19;1.90;99.90
2447;DHT22;26430;48.818;9.244;2023-01-26T04:11:45;1.80;99.90
2447;DHT22;26430;48.818;9.244;2023-01-26T04:14:12;1.60;99.90
2447;DHT22;26430;48.818;9.244;2023-01-26T04:16:57;1.70;99.90
2447;DHT22;26430;48.818;9.244;2023-01-26T04:19:42;1.80;99.90
2447;DHT22;26430;48.818;9.244;2023-01-26T04:22:26;1.80;99.90
2447;DHT22;26430;48.818;9.244;2023-01-26T04:24:52;1.90;99.90
2447;DHT22;26430;48.818;9.244;2023-01-26T04:27:18;2.00;99.90
2447;DHT22;26430;48.818;9.244;2023-01-26T04:29:44;2.10;99.90
2447;DHT22;26430;48.818;9.244;2023-01-26T04:32:09;2.00;99.90
2447;DHT22;26430;48.818;9.244;2023-01-26T04:34:35;1.90;99.90
2447;DHT22;26430;48.818;9.244;2023-01-26T04:37:01;2.10;99.90
2447;DHT22;26430;48.818;9.244;2023-01-26T04:39:26;2.10;99.90
2447;DHT22;26430;48.818;9.244;2023-01-26T04:41:52;2.20;99.90
2447;DHT22;26430;48.818;9.244;2023-01-26T04:44:18;2.10;99.90
2447;DHT22;26430;48.818;9.244;2023-01-26T04:46:43;2.10;99.90
2447;DHT22;26430;48.818;9.244;2023-01-26T04:49:10;2.00;99.90
2447;DHT22;26430;48.818;9.244;2023-01-26T04:51:36;1.80;99.90
2447;DHT22;26430;48.818;9.244;2023-01-26T04:54:01;1.80;99.90
2447;DHT22;26430;48.818;9.244;2023-01-26T04:56:33;1.70;99.90
2447;DHT22;26430;48.818;9.244;2023-01-26T04:59:00;1.50;99.90
2447;DHT22;26430;48.818;9.244;2023-01-26T05:01:26;1.50;99.90
2447;DHT22;26430;48.818;9.244;2023-01-26T05:03:52;1.60;99.90
2447;DHT22;26430;48.818;9.244;2023-01-26T05:06:18;1.70;99.90
2447;DHT22;26430;48.818;9.244;2023-01-26T05:08:43;1.80;99.90
2447;DHT22;26430;48.818;9.244;2023-01-26T05:11:09;1.80;99.90
2447;DHT22;26430;48.818;9.244;2023-01-26T05:13:35;1.70;99.90
2447;DHT22;26430;48.818;9.244;2023-01-26T05:16:04;1.70;99.90
2447;DHT22;26430;48.818;9.244;2023-01-26T05:18:30;1.80;99.90
2447;DHT22;26430;48.818;9.244;2023-01-26T05:20:56;1.50;99.90
2447;DHT22;26430;48.818;9.244;2023-01-26T05:23:22;1.40;99.90
2447;DHT22;26430;48.818;9.244;2023-01-26T05:25:48;1.30;99.90
2447;DHT22;26430;48.818;9.244;2023-01-26T05:28:13;1.30;99.90
2447;DHT22;26430;48.818;9.244;2023-01-26T05:30:39;1.20;99.90
2447;DHT22;26430;48.818;9.244;2023-01-26T05:33:07;1.30;99.90
2447;DHT22;26430;48.818;9.244;2023-01-26T05:35:33;1.50;99.90
2447;DHT22;26430;48.818;9.244;2023-01-26T05:37:59;1.60;99.90
2447;DHT22;26430;48.818;9.244;2023-01-26T05:40:25;1.60;99.90
2447;DHT22;26430;48.818;9.244;2023-01-26T05:42:51;1.60;99.90
2447;DHT22;26430;48.818;9.244;2023-01-26T05:45:18;1.50;99.90
2447;DHT22;26430;48.818;9.244;2023-01-26T05:47:44;1.50;99.90
2447;DHT22;26430;48.818;9.244;2023-01-26T05:50:11;1.40;99.90
2447;DHT22;26430;48.818;9.244;2023-01-26T05:52:37;1.50;99.90
2447;DHT22;26430;48.818;9.244;2023-01-26T05:55:04;1.50;99.90
2447;DHT22;26430;48.818;9.244;2023-01-26T05:57:30;1.50;99.90
2447;DHT22;26430;48.818;9.244;2023-01-26T05:59:56;1.60;99.90
2447;DHT22;26430;48.818;9.244;2023-01-26T06:02:22;1.60;99.90
2447;DHT22;26430;48.818;9.244;2023-01-26T06:04:47;1.50;99.90
2447;DHT22;26430;48.818;9.244;2023-01-26T06:07:13;1.40;99.90
2447;DHT22;26430;48.818;9.244;2023-01-26T06:09:39;1.30;99.90
2447;DHT22;26430;48.818;9.244;2023-01-26T06:12:06;1.20;99.90
2447;DHT22;26430;48.818;9.244;2023-01-26T06:14:35;1.10;99.90
2447;DHT22;26430;48.818;9.244;2023-01-26T06:17:01;1.10;99.90
2447;DHT22;26430;48.818;9.244;2023-01-26T06:19:27;1.20;99.90
2447;DHT22;26430;48.818;9.244;2023-01-26T06:21:52;1.20;99.90
2447;DHT22;26430;48.818;9.244;2023-01-26T06:24:18;1.10;99.90
2447;DHT22;26430;48.818;9.244;2023-01-26T06:26:46;1.10;99.90
2447;DHT22;26430;48.818;9.244;2023-01-26T06:29:12;1.10;99.90
2447;DHT22;26430;48.818;9.244;2023-01-26T06:31:39;1.00;99.90
2447;DHT22;26430;48.818;9.244;2023-01-26T06:34:04;0.90;99.90
2447;DHT22;26430;48.818;9.244;2023-01-26T06:36:30;1.00;99.90
2447;DHT22;26430;48.818;9.244;2023-01-26T06:38:55;1.00;99.90
2447;DHT22;26430;48.818;9.244;2023-01-26T06:41:21;1.10;99.90
2447;DHT22;26430;48.818;9.244;2023-01-26T06:43:47;1.10;99.90
2447;DHT22;26430;48.818;9.244;2023-01-26T06:46:14;1.20;99.90
2447;DHT22;26430;48.818;9.244;2023-01-26T06:48:40;1.40;99.90
2447;DHT22;26430;48.818;9.244;2023-01-26T06:53:51;1.50;99.90
2447;DHT22;26430;48.818;9.244;2023-01-26T06:56:18;1.50;99.90
2447;DHT22;26430;48.818;9.244;2023-01-26T06:58:43;1.60;99.90
2447;DHT22;26430;48.818;9.244;2023-01-26T07:01:21;1.60;99.90
2447;DHT22;26430;48.818;9.244;2023-01-26T07:03:51;1.60;99.90
2447;DHT22;26430;48.818;9.244;2023-01-26T07:06:17;1.60;99.90
2447;DHT22;26430;48.818;9.244;2023-01-26T07:08:43;1.60;99.90
2447;DHT22;26430;48.818;9.244;2023-01-26T07:11:10;1.60;99.90
2447;DHT22;26430;48.818;9.244;2023-01-26T07:13:36;1.60;99.90
2447;DHT22;26430;48.818;9.244;2023-01-26T07:16:03;1.60;99.90
2447;DHT22;26430;48.818;9.244;2023-01-26T07:18:29;1.60;99.90
2447;DHT22;26430;48.818;9.244;2023-01-26T07:21:07;1.60;99.90
2447;DHT22;26430;48.818;9.244;2023-01-26T07:23:33;1.70;99.90
2447;DHT22;26430;48.818;9.244;2023-01-26T07:25:59;1.70;99.90
2447;DHT22;26430;48.818;9.244;2023-01-26T07:28:25;1.70;99.90
2447;DHT22;26430;48.818;9.244;2023-01-26T07:30:52;1.50;99.90
2447;DHT22;26430;48.818;9.244;2023-01-26T07:33:21;1.60;99.90
2447;DHT22;26430;48.818;9.244;2023-01-26T07:35:46;1.50;99.90
2447;DHT22;26430;48.818;9.244;2023-01-26T07:38:12;1.40;99.90
2447;DHT22;26430;48.818;9.244;2023-01-26T07:40:38;1.40;99.90
2447;DHT22;26430;48.818;9.244;2023-01-26T07:43:03;1.40;99.90
2447;DHT22;26430;48.818;9.244;2023-01-26T07:45:29;1.50;99.90
2447;DHT22;26430;48.818;9.244;2023-01-26T07:47:55;1.50;99.90
2447;DHT22;26430;48.818;9.244;2023-01-26T07:50:21;1.40;99.90
2447;DHT22;26430;48.818;9.244;2023-01-26T07:52:47;1.30;99.90
2447;DHT22;26430;48.818;9.244;2023-01-26T07:55:13;1.30;99.90
2447;DHT22;26430;48.818;9.244;2023-01-26T07:57:40;1.00;99.90
2447;DHT22;26430;48.818;9.244;2023-01-26T08:00:06;0.90;99.90
2447;DHT22;26430;48.818;9.244;2023-01-26T08:02:32;0.80;99.90
2447;DHT22;26430;48.818;9.244;2023-01-26T08:04:57;0.90;99.90
2447;DHT22;26430;48.818;9.244;2023-01-26T08:07:24;0.80;99.90
2447;DHT22;26430;48.818;9.244;2023-01-26T08:09:50;0.90;99.90
2447;DHT22;26430;48.818;9.244;2023-01-26T08:12:16;0.90;99.90
2447;DHT22;26430;48.818;9.244;2023-01-26T08:14:42;1.00;99.90
2447;DHT22;26430;48.818;9.244;2023-01-26T08:17:07;1.20;99.90
2447;DHT22;26430;48.818;9.244;2023-01-26T08:19:33;1.50;99.90
2447;DHT22;26430;48.818;9.244;2023-01-26T08:21:58;1.40;99.90
2447;DHT22;26430;48.818;9.244;2023-01-26T08:24:24;1.40;99.90
2447;DHT22;26430;48.818;9.244;2023-01-26T08:26:51;1.30;99.90
2447;DHT22;26430;48.818;9.244;2023-01-26T08:29:16;1.40;99.90
2447;DHT22;26430;48.818;9.244;2023-01-26T08:31:42;1.60;99.90
2447;DHT22;26430;48.818;9.244;2023-01-26T08:34:08;1.60;99.90
2447;DHT22;26430;48.818;9.244;2023-01-26T08:36:33;1.50;99.90
2447;DHT22;26430;48.818;9.244;2023-01-26T08:38:59;1.40;99.90
2447;DHT22;26430;48.818;9.244;2023-01-26T08:41:27;1.30;99.90
2447;DHT22;26430;48.818;9.244;2023-01-26T08:43:52;1.40;99.90
2447;DHT22;26430;48.818;9.244;2023-01-26T08:46:18;1.70;99.90
2447;DHT22;26430;48.818;9.244;2023-01-26T08:48:44;1.80;99.90
2447;DHT22;26430;48.818;9.244;2023-01-26T08:51:09;1.80;99.90
2447;DHT22;26430;48.818;9.244;2023-01-26T08:53:36;1.80;99.90
2447;DHT22;26430;48.818;9.244;2023-01-26T08:56:03;1.90;99.90
2447;DHT22;26430;48.818;9.244;2023-01-26T08:58:29;2.00;99.90
2447;DHT22;26430;48.818;9.244;2023-01-26T09:00:55;2.00;99.90
2447;DHT22;26430;48.818;9.244;2023-01-26T09:03:21;2.00;99.90
2447;DHT22;26430;48.818;9.244;2023-01-26T09:05:47;2.10;99.90
2447;DHT22;26430;48.818;9.244;2023-01-26T09:08:12;2.30;99.90
2447;DHT22;26430;48.818;9.244;2023-01-26T09:10:38;2.40;99.90
2447;DHT22;26430;48.818;9.244;2023-01-26T09:13:04;2.50;99.90
2447;DHT22;26430;48.818;9.244;2023-01-26T09:15:30;2.60;99.90
2447;DHT22;26430;48.818;9.244;2023-01-26T09:17:55;2.70;99.90
2447;DHT22;26430;48.818;9.244;2023-01-26T09:20:21;2.70;99.90
2447;DHT22;26430;48.818;9.244;2023-01-26T09:22:47;2.60;99.90
2447;DHT22;26430;48.818;9.244;2023-01-26T09:25:13;2.40;99.90
2447;DHT22;26430;48.818;9.244;2023-01-26T09:27:39;2.50;99.90
2447;DHT22;26430;48.818;9.244;2023-01-26T09:30:06;2.20;99.90
2447;DHT22;26430;48.818;9.244;2023-01-26T09:32:32;2.10;99.90
2447;DHT22;26430;48.818;9.244;2023-01-26T09:34:58;2.30;99.90
2447;DHT22;26430;48.818;9.244;2023-01-26T09:37:23;2.20;99.90
2447;DHT22;26430;48.818;9.244;2023-01-26T09:39:49;2.10;99.90
2447;DHT22;26430;48.818;9.244;2023-01-26T09:43:02;2.00;99.90
2447;DHT22;26430;48.818;9.244;2023-01-26T09:45:29;1.80;99.90
2447;DHT22;26430;48.818;9.244;2023-01-26T09:48:14;1.80;99.90
2447;DHT22;26430;48.818;9.244;2023-01-26T09:53:42;2.00;99.90
2447;DHT22;26430;48.818;9.244;2023-01-26T09:56:18;2.00;99.90
2447;DHT22;26430;48.818;9.244;2023-01-26T09:59:24;2.10;99.90
2447;DHT22;26430;48.818;9.244;2023-01-26T10:02:09;2.00;99.90
2447;DHT22;26430;48.818;9.244;2023-01-26T10:04:43;2.20;99.90
2447;DHT22;26430;48.818;9.244;2023-01-26T10:07:12;2.20;99.90
2447;DHT22;26430;48.818;9.244;2023-01-26T10:09:40;2.20;99.90
2447;DHT22;26430;48.818;9.244;2023-01-26T10:15:08;1.90;99.90
2447;DHT22;26430;48.818;9.244;2023-01-26T10:17:42;2.10;99.90
2447;DHT22;26430;48.818;9.244;2023-01-26T10:20:26;2.00;99.90
2447;DHT22;26430;48.818;9.244;2023-01-26T10:23:03;2.10;99.90
2447;DHT22;26430;48.818;9.244;2023-01-26T10:25:35;2.10;99.90
2447;DHT22;26430;48.818;9.244;2023-01-26T10:28:18;2.00;99.90
2447;DHT22;26430;48.818;9.244;2023-01-26T10:30:46;2.00;99.90
2447;DHT22;26430;48.818;9.244;2023-01-26T10:33:25;2.00;99.90
2447;DHT22;26430;48.818;9.244;2023-01-26T10:35:52;1.90;99.90
2447;DHT22;26430;48.818;9.244;2023-01-26T10:38:38;2.00;99.90
2447;DHT22;26430;48.818;9.244;2023-01-26T10:41:21;2.10;99.90
2447;DHT22;26430;48.818;9.244;2023-01-26T10:49:21;2.10;99.90
2447;DHT22;26430;48.818;9.244;2023-01-26T10:54:38;2.10;99.90
2447;DHT22;26430;48.818;9.244;2023-01-26T10:57:17;2.00;99.90
2447;DHT22;26430;48.818;9.244;2023-01-26T10:59:57;1.90;99.90
2447;DHT22;26430;48.818;9.244;2023-01-26T11:02:27;2.00;99.90
2447;DHT22;26430;48.818;9.244;2023-01-26T11:12:45;1.90;99.90
2447;DHT22;26430;48.818;9.244;2023-01-26T11:15:22;1.90;99.90
2447;DHT22;26430;48.818;9.244;2023-01-26T11:18:00;1.80;99.90
2447;DHT22;26430;48.818;9.244;2023-01-26T11:20:46;1.60;99.90
2447;DHT22;26430;48.818;9.244;2023-01-26T11:23:37;1.60;99.90
2447;DHT22;26430;48.818;9.244;2023-01-26T11:26:26;1.70;99.90
2447;DHT22;26430;48.818;9.244;2023-01-26T11:37:32;1.50;99.90
2447;DHT22;26430;48.818;9.244;2023-01-26T11:43:26;1.60;99.90
2447;DHT22;26430;48.818;9.244;2023-01-26T11:54:13;1.70;99.90
2447;DHT22;26430;48.818;9.244;2023-01-26T12:00:03;1.70;99.90
2447;DHT22;26430;48.818;9.244;2023-01-26T12:02:33;1.80;99.90
2447;DHT22;26430;48.818;9.244;2023-01-26T12:05:13;1.80;99.90
2447;DHT22;26430;48.818;9.244;2023-01-26T12:10:50;1.80;99.90
2447;DHT22;26430;48.818;9.244;2023-01-26T12:13:37;1.70;99.90
2447;DHT22;26430;48.818;9.244;2023-01-26T12:16:22;1.80;99.90
2447;DHT22;26430;48.818;9.244;2023-01-26T12:21:46;1.80;99.90
2447;DHT22;26430;48.818;9.244;2023-01-26T12:24:18;1.70;99.90
2447;DHT22;26430;48.818;9.244;2023-01-26T12:26:49;1.90;99.90
2447;DHT22;26430;48.818;9.244;2023-01-26T12:29:55;1.90;99.90
2447;DHT22;26430;48.818;9.244;2023-01-26T12:32:21;1.90;99.90
2447;DHT22;26430;48.818;9.244;2023-01-26T12:34:47;2.00;99.90
2447;DHT22;26430;48.818;9.244;2023-01-26T12:40:30;1.90;99.90
2447;DHT22;26430;48.818;9.244;2023-01-26T12:46:06;2.00;99.90
2447;DHT22;26430;48.818;9.244;2023-01-26T12:49:19;2.00;99.90
2447;DHT22;26430;48.818;9.244;2023-01-26T12:51:52;1.80;99.90
2447;DHT22;26430;48.818;9.244;2023-01-26T12:54:30;1.70;99.90
2447;DHT22;26430;48.818;9.244;2023-01-26T12:56:59;1.90;99.90
2447;DHT22;26430;48.818;9.244;2023-01-26T12:59:33;2.00;99.90
2447;DHT22;26430;48.818;9.244;2023-01-26T13:02:10;2.00;99.90
2447;DHT22;26430;48.818;9.244;2023-01-26T13:04:45;2.10;99.90
2447;DHT22;26430;48.818;9.244;2023-01-26T13:07:28;2.00;99.90
2447;DHT22;26430;48.818;9.244;2023-01-26T13:12:45;1.60;99.90
2447;DHT22;26430;48.818;9.244;2023-01-26T13:15:13;1.50;99.90
2447;DHT22;26430;48.818;9.244;2023-01-26T13:20:25;1.60;99.90
2447;DHT22;26430;48.818;9.244;2023-01-26T13:22:51;1.60;99.90
2447;DHT22;26430;48.818;9.244;2023-01-26T13:25:29;1.60;99.90
2447;DHT22;26430;48.818;9.244;2023-01-26T13:28:02;1.60;99.90
2447;DHT22;26430;48.818;9.244;2023-01-26T13:30:33;1.60;99.90
2447;DHT22;26430;48.818;9.244;2023-01-26T13:33:16;1.60;99.90
2447;DHT22;26430;48.818;9.244;2023-01-26T13:35:44;1.60;99.90
2447;DHT22;26430;48.818;9.244;2023-01-26T13:38:40;1.80;99.90
2447;DHT22;26430;48.818;9.244;2023-01-26T13:41:17;1.90;99.90
2447;DHT22;26430;48.818;9.244;2023-01-26T13:43:53;1.70;99.90
2447;DHT22;26430;48.818;9.244;2023-01-26T13:46:22;1.70;99.90
2447;DHT22;26430;48.818;9.244;2023-01-26T13:48:53;1.70;99.90
2447;DHT22;26430;48.818;9.244;2023-01-26T13:51:27;1.60;99.90
2447;DHT22;26430;48.818;9.244;2023-01-26T13:56:38;1.30;99.90
2447;DHT22;26430;48.818;9.244;2023-01-26T13:59:13;1.30;99.90
2447;DHT22;26430;48.818;9.244;2023-01-26T14:01:45;1.30;99.90
2447;DHT22;26430;48.818;9.244;2023-01-26T14:07:35;1.30;99.90
2447;DHT22;26430;48.818;9.244;2023-01-26T14:10:02;1.30;99.90
2447;DHT22;26430;48.818;9.244;2023-01-26T14:12:34;1.30;99.90
2447;DHT22;26430;48.818;9.244;2023-01-26T14:15:22;1.40;99.90
2447;DHT22;26430;48.818;9.244;2023-01-26T14:17:56;1.50;99.90
2447;DHT22;26430;48.818;9.244;2023-01-26T14:20:33;1.50;99.90
2447;DHT22;26430;48.818;9.244;2023-01-26T14:23:13;1.40;99.90
2447;DHT22;26430;48.818;9.244;2023-01-26T14:25:46;1.50;99.90
2447;DHT22;26430;48.818;9.244;2023-01-26T14:28:18;1.40;99.90
2447;DHT22;26430;48.818;9.244;2023-01-26T14:30:50;1.40;99.90
2447;DHT22;26430;48.818;9.244;2023-01-26T14:33:19;1.20;99.90
2447;DHT22;26430;48.818;9.244;2023-01-26T14:36:00;1.30;99.90
2447;DHT22;26430;48.818;9.244;2023-01-26T14:38:29;1.20;99.90
2447;DHT22;26430;48.818;9.244;2023-01-26T14:40:58;1.20;99.90
2447;DHT22;26430;48.818;9.244;2023-01-26T14:43:25;1.20;99.90
2447;DHT22;26430;48.818;9.244;2023-01-26T14:48:28;1.40;99.90
2447;DHT22;26430;48.818;9.244;2023-01-26T14:50:55;1.30;99.90
2447;DHT22;26430;48.818;9.244;2023-01-26T14:53:23;1.40;99.90
2447;DHT22;26430;48.818;9.244;2023-01-26T14:55:50;1.40;99.90
2447;DHT22;26430;48.818;9.244;2023-01-26T14:58:26;1.40;99.90
2447;DHT22;26430;48.818;9.244;2023-01-26T15:00:52;1.50;99.90
2447;DHT22;26430;48.818;9.244;2023-01-26T15:03:37;1.50;99.90
2447;DHT22;26430;48.818;9.244;2023-01-26T15:06:19;1.30;99.90
2447;DHT22;26430;48.818;9.244;2023-01-26T15:11:35;1.30;99.90
2447;DHT22;26430;48.818;9.244;2023-01-26T15:17:29;1.50;99.90
2447;DHT22;26430;48.818;9.244;2023-01-26T15:19:55;1.50;99.90
2447;DHT22;26430;48.818;9.244;2023-01-26T15:22:23;1.40;99.90
2447;DHT22;26430;48.818;9.244;2023-01-26T15:25:20;1.30;99.90
2447;DHT22;26430;48.818;9.244;2023-01-26T15:27:52;1.30;99.90
2447;DHT22;26430;48.818;9.244;2023-01-26T15:30:24;1.30;99.90
2447;DHT22;26430;48.818;9.244;2023-01-26T15:32:50;1.40;99.90
2447;DHT22;26430;48.818;9.244;2023-01-26T15:37:44;1.60;99.90
2447;DHT22;26430;48.818;9.244;2023-01-26T15:40:10;1.70;99.90
2447;DHT22;26430;48.818;9.244;2023-01-26T15:42:36;1.80;99.90
2447;DHT22;26430;48.818;9.244;2023-01-26T15:45:02;1.80;99.90
2447;DHT22;26430;48.818;9.244;2023-01-26T15:47:27;1.70;99.90
2447;DHT22;26430;48.818;9.244;2023-01-26T15:49:53;1.70;99.90
2447;DHT22;26430;48.818;9.244;2023-01-26T15:52:21;1.80;99.90
2447;DHT22;26430;48.818;9.244;2023-01-26T15:54:49;1.90;99.90
2447;DHT22;26430;48.818;9.244;2023-01-26T15:57:16;1.70;99.90
2447;DHT22;26430;48.818;9.244;2023-01-26T15:59:42;1.50;99.90
2447;DHT22;26430;48.818;9.244;2023-01-26T16:02:15;1.60;99.90
2447;DHT22;26430;48.818;9.244;2023-01-26T16:04:42;1.40;99.90
2447;DHT22;26430;48.818;9.244;2023-01-26T16:07:17;1.40;99.90
2447;DHT22;26430;48.818;9.244;2023-01-26T16:09:43;1.40;99.90
2447;DHT22;26430;48.818;9.244;2023-01-26T16:12:16;1.40;99.90
2447;DHT22;26430;48.818;9.244;2023-01-26T16:14:43;1.40;99.90
2447;DHT22;26430;48.818;9.244;2023-01-26T16:17:13;1.60;99.90
2447;DHT22;26430;48.818;9.244;2023-01-26T16:19:40;1.60;99.90
2447;DHT22;26430;48.818;9.244;2023-01-26T16:22:08;1.60;99.90
2447;DHT22;26430;48.818;9.244;2023-01-26T16:24:35;1.50;99.90
2447;DHT22;26430;48.818;9.244;2023-01-26T16:27:00;1.40;99.90
2447;DHT22;26430;48.818;9.244;2023-01-26T16:29:26;1.30;99.90
2447;DHT22;26430;48.818;9.244;2023-01-26T16:31:52;1.40;99.90
2447;DHT22;26430;48.818;9.244;2023-01-26T16:34:17;1.40;99.90
2447;DHT22;26430;48.818;9.244;2023-01-26T16:36:43;1.50;99.90
2447;DHT22;26430;48.818;9.244;2023-01-26T16:39:09;1.40;99.90
2447;DHT22;26430;48.818;9.244;2023-01-26T16:41:34;1.50;99.90
2447;DHT22;26430;48.818;9.244;2023-01-26T16:44:01;1.60;99.90
2447;DHT22;26430;48.818;9.244;2023-01-26T16:46:28;1.80;99.90
2447;DHT22;26430;48.818;9.244;2023-01-26T16:48:54;1.90;99.90
2447;DHT22;26430;48.818;9.244;2023-01-26T16:51:26;2.00;99.90
2447;DHT22;26430;48.818;9.244;2023-01-26T16:53:54;1.90;99.90
2447;DHT22;26430;48.818;9.244;2023-01-26T16:56:21;1.80;99.90
2447;DHT22;26430;48.818;9.244;2023-01-26T16:58:47;1.70;99.90
2447;DHT22;26430;48.818;9.244;2023-01-26T17:01:28;1.70;99.90
2447;DHT22;26430;48.818;9.244;2023-01-26T17:03:56;1.80;99.90
2447;DHT22;26430;48.818;9.244;2023-01-26T17:06:23;1.70;99.90
2447;DHT22;26430;48.818;9.244;2023-01-26T17:08:49;1.70;99.90
2447;DHT22;26430;48.818;9.244;2023-01-26T17:11:23;1.60;99.90
2447;DHT22;26430;48.818;9.244;2023-01-26T17:13:50;1.60;99.90
2447;DHT22;26430;48.818;9.244;2023-01-26T17:16:18;1.70;99.90
2447;DHT22;26430;48.818;9.244;2023-01-26T17:18:45;1.70;99.90
2447;DHT22;26430;48.818;9.244;2023-01-26T17:21:13;1.80;99.90
2447;DHT22;26430;48.818;9.244;2023-01-26T17:23:39;2.00;99.90
2447;DHT22;26430;48.818;9.244;2023-01-26T17:26:10;2.10;99.90
2447;DHT22;26430;48.818;9.244;2023-01-26T17:28:36;2.00;99.90
2447;DHT22;26430;48.818;9.244;2023-01-26T17:31:09;1.90;99.90
2447;DHT22;26430;48.818;9.244;2023-01-26T17:33:36;1.70;99.90
2447;DHT22;26430;48.818;9.244;2023-01-26T17:36:03;1.60;99.90
2447;DHT22;26430;48.818;9.244;2023-01-26T17:38:30;1.60;99.90
2447;DHT22;26430;48.818;9.244;2023-01-26T17:40:56;1.50;99.90
2447;DHT22;26430;48.818;9.244;2023-01-26T17:43:23;1.50;99.90
2447;DHT22;26430;48.818;9.244;2023-01-26T17:45:48;1.30;99.90
2447;DHT22;26430;48.818;9.244;2023-01-26T17:48:14;1.10;99.90